DGAA

Accra/Kotoka

Airport
ICAO code
DGAA
Summary
ICAO Region
AFI
ICAO Territory
Location

Accra,

Coordinates
5° 36' 19" N , 0° 10' 0" W
KCC
Aw
Metar
Observation
DGAA 170900Z 19005KT 140V220 8000 BKN010 24/23 Q1015 NOSIG
Station
Accra
Date/Time
2022-08-17 09:00:00
Wind direction
190°
Wind speed
05 kts
Lowest cloud amount
broken clouds
Temperature
24°C
Dew point
23°C
Humidity
94%
QNH
1015 hPa
Weather condition
n/a

Description

International airport serving the capital of Ghana.

Climatology

Tropical Savanna climate (Köppen climate classification Aw)

Runways

Designator Length Width Surface Rops
3/21 3403 61 ASP Yes/Yes

Airport map

Aerial View

SKYbrary Partners:

Safety knowledge contributed by: